Time;durP1;ratioP1;P1;durP2;ratioP2;P2;SDS_P1;SDS_P2;PMS_P1;PMS_P2;Temp;Humidity;BMP_temperature;BMP_pressure;BME280_temperature;BME280_humidity;BME280_pressure;Samples;Min_cycle;Max_cycle;Signal;HPM_P1;HPM_P2
2022/05/25 00:01:32;;;;;;;4.13;1.73;;;10.00;99.90;;;;;;5045308;28;20037;-61
2022/05/25 00:03:58;;;;;;;4.50;1.63;;;10.00;99.90;;;;;;5047059;28;20140;-63
2022/05/25 00:06:24;;;;;;;1.95;1.85;;;10.00;99.90;;;;;;5046713;28;20091;-61
2022/05/25 00:08:50;;;;;;;3.65;1.60;;;10.00;99.90;;;;;;5046386;28;20057;-64
2022/05/25 00:11:15;;;;;;;2.85;1.70;;;9.90;99.90;;;;;;5047253;28;20120;-67
2022/05/25 00:13:41;;;;;;;5.35;2.10;;;9.90;99.90;;;;;;5028940;28;20049;-61
2022/05/25 00:16:07;;;;;;;4.18;1.85;;;9.90;99.90;;;;;;5029266;28;20088;-63
2022/05/25 00:18:33;;;;;;;2.20;2.00;;;9.90;99.90;;;;;;5047018;28;20498;-67
2022/05/25 00:21:01;;;;;;;5.38;2.00;;;9.90;99.90;;;;;;5028887;28;20041;-64
2022/05/25 00:23:27;;;;;;;2.50;2.10;;;9.90;99.90;;;;;;5028958;28;20041;-62
2022/05/25 00:25:52;;;;;;;5.57;1.80;;;9.90;99.90;;;;;;5028492;28;20087;-64
2022/05/25 00:28:18;;;;;;;4.38;2.15;;;9.90;99.90;;;;;;5047010;28;20037;-62
2022/05/25 00:30:45;;;;;;;3.17;2.03;;;9.90;99.90;;;;;;5028154;28;20468;-64
2022/05/25 00:33:13;;;;;;;2.30;1.95;;;9.90;99.90;;;;;;5046496;28;20060;-67
2022/05/25 00:35:41;;;;;;;3.28;1.95;;;9.90;99.90;;;;;;5029086;28;20454;-60
2022/05/25 00:38:08;;;;;;;2.22;1.95;;;9.90;99.90;;;;;;5046831;28;20045;-66
2022/05/25 00:40:38;;;;;;;3.25;2.13;;;9.90;99.90;;;;;;5028118;28;20048;-63
2022/05/25 00:43:05;;;;;;;12.95;2.70;;;9.80;99.90;;;;;;5046264;28;20041;-67
2022/05/25 00:45:51;;;;;;;7.45;2.47;;;9.80;99.90;;;;;;5046510;28;20408;-61
2022/05/25 00:48:30;;;;;;;2.38;2.17;;;9.80;99.90;;;;;;5046463;28;20061;-61
2022/05/25 00:51:15;;;;;;;3.60;2.20;;;9.80;99.90;;;;;;5028078;28;20089;-69
2022/05/25 00:53:47;;;;;;;3.75;2.10;;;9.80;99.90;;;;;;5028187;28;20103;-64
2022/05/25 00:56:16;;;;;;;7.35;2.70;;;9.80;99.90;;;;;;5028700;28;20053;-62
2022/05/25 00:59:10;;;;;;;5.78;2.50;;;9.80;99.90;;;;;;5028458;28;20056;-61
2022/05/25 01:01:36;;;;;;;2.85;2.20;;;9.80;99.90;;;;;;5045785;28;20052;-65
2022/05/25 01:04:02;;;;;;;2.83;2.50;;;9.80;99.90;;;;;;5046235;28;20099;-67
2022/05/25 01:06:43;;;;;;;6.03;2.78;;;9.80;99.90;;;;;;5028066;28;20080;-62
2022/05/25 01:09:47;;;;;;;6.38;2.50;;;9.80;99.90;;;;;;5027473;28;20572;-67
2022/05/25 01:12:50;;;;;;;4.32;2.60;;;9.70;99.90;;;;;;5027267;28;20453;-65
2022/05/25 01:15:46;;;;;;;2.60;2.33;;;9.70;99.90;;;;;;5046143;28;20076;-62
2022/05/25 01:18:27;;;;;;;5.68;2.65;;;9.60;99.90;;;;;;5045632;28;20053;-62
2022/05/25 01:21:03;;;;;;;4.68;2.42;;;9.50;99.90;;;;;;5028129;28;20049;-60
2022/05/25 01:23:44;;;;;;;6.00;2.60;;;9.50;99.90;;;;;;5027517;28;20053;-66
2022/05/25 01:26:51;;;;;;;3.35;2.80;;;9.40;99.90;;;;;;5011653;28;20115;-63
2022/05/25 01:29:56;;;;;;;2.83;2.60;;;9.30;99.90;;;;;;5028313;28;20180;-60
2022/05/25 01:32:31;;;;;;;5.63;2.60;;;9.30;99.90;;;;;;5007880;28;20092;-65
2022/05/25 01:35:44;;;;;;;5.53;2.85;;;9.20;99.90;;;;;;5028072;28;20048;-61
2022/05/25 01:38:42;;;;;;;5.10;3.00;;;9.10;99.90;;;;;;5021039;28;20148;-62
2022/05/25 01:41:20;;;;;;;5.50;2.95;;;9.10;99.90;;;;;;5027390;28;20056;-66
2022/05/25 01:43:57;;;;;;;4.60;2.67;;;9.10;99.90;;;;;;5027449;28;20053;-65
2022/05/25 01:46:38;;;;;;;3.40;2.78;;;9.10;99.90;;;;;;5028021;28;20053;-67
2022/05/25 01:49:07;;;;;;;2.95;2.70;;;9.10;99.90;;;;;;5027443;28;20056;-61
2022/05/25 01:51:43;;;;;;;4.50;3.08;;;9.00;99.90;;;;;;5046133;28;20507;-61
2022/05/25 01:54:13;;;;;;;6.60;2.67;;;9.00;99.90;;;;;;5044831;28;20560;-61
2022/05/25 01:56:45;;;;;;;7.32;2.85;;;9.00;99.90;;;;;;5045635;28;20150;-69
2022/05/25 01:59:14;;;;;;;4.32;2.60;;;8.90;99.90;;;;;;5045371;28;20037;-61
2022/05/25 02:04:47;;;;;;;4.97;3.10;;;8.90;99.90;;;;;;5028046;28;20295;-66
2022/05/25 02:07:37;;;;;;;8.63;2.85;;;8.80;99.90;;;;;;5027593;28;20449;-64
2022/05/25 02:10:25;;;;;;;4.20;2.95;;;8.70;99.90;;;;;;5027318;28;20056;-68
2022/05/25 02:13:26;;;;;;;6.43;3.47;;;8.70;99.90;;;;;;5027822;28;20053;-68
2022/05/25 02:16:11;;;;;;;4.47;2.92;;;8.70;99.90;;;;;;5007938;28;20058;-65
2022/05/25 02:18:40;;;;;;;4.70;3.20;;;8.60;99.90;;;;;;5024297;28;20045;-66
2022/05/25 02:21:18;;;;;;;6.93;3.38;;;8.50;99.90;;;;;;5007724;28;20056;-63
2022/05/25 02:24:05;;;;;;;4.07;3.72;;;8.50;99.90;;;;;;4994549;28;20049;-64
2022/05/25 02:26:58;;;;;;;6.68;3.60;;;8.50;99.90;;;;;;5031496;28;20057;-68
2022/05/25 02:29:31;;;;;;;9.52;3.90;;;8.50;99.90;;;;;;5030866;28;20048;-67
2022/05/25 02:32:21;;;;;;;4.68;3.70;;;8.50;99.90;;;;;;5013436;28;20041;-65
2022/05/25 02:34:50;;;;;;;4.22;3.20;;;8.50;99.90;;;;;;5049872;28;20048;-70
2022/05/25 02:37:25;;;;;;;6.40;3.45;;;8.50;99.90;;;;;;5030647;28;20059;-61
2022/05/25 02:39:53;;;;;;;4.00;3.50;;;8.40;99.90;;;;;;5049027;28;20130;-68
2022/05/25 02:42:20;;;;;;;7.18;4.38;;;8.40;99.90;;;;;;5030395;28;20080;-66
2022/05/25 02:44:46;;;;;;;6.72;4.32;;;8.40;99.90;;;;;;5014383;28;20055;-62
2022/05/25 02:47:19;;;;;;;5.07;3.67;;;8.40;99.90;;;;;;5048593;28;20094;-60
2022/05/25 02:49:44;;;;;;;7.15;4.20;;;8.40;99.90;;;;;;5048413;28;20053;-65
2022/05/25 02:52:11;;;;;;;4.10;3.70;;;8.40;99.90;;;;;;5048681;28;20411;-61
2022/05/25 02:54:38;;;;;;;6.57;3.53;;;8.30;99.90;;;;;;5030274;28;20049;-60
2022/05/25 02:57:04;;;;;;;8.18;4.20;;;8.40;99.90;;;;;;5047989;28;20434;-64
2022/05/25 02:59:30;;;;;;;4.82;4.25;;;8.30;99.90;;;;;;5030615;28;20083;-68
2022/05/25 03:01:56;;;;;;;4.35;3.95;;;8.30;99.90;;;;;;4997481;28;20049;-60
2022/05/25 03:04:22;;;;;;;10.23;5.00;;;8.30;99.90;;;;;;5014124;28;20128;-61
2022/05/25 03:06:47;;;;;;;5.82;4.32;;;8.30;99.90;;;;;;5030397;28;20487;-67
2022/05/25 03:09:14;;;;;;;5.05;4.55;;;8.20;99.90;;;;;;5029692;28;20079;-64
2022/05/25 03:11:41;;;;;;;5.45;4.40;;;8.20;99.90;;;;;;5029938;28;20049;-64
2022/05/25 03:14:07;;;;;;;9.50;4.72;;;8.20;99.90;;;;;;5048138;28;20052;-65
2022/05/25 03:16:33;;;;;;;6.15;5.25;;;8.20;99.90;;;;;;5030394;28;20483;-63
2022/05/25 03:18:59;;;;;;;12.07;5.60;;;8.20;99.90;;;;;;5047183;28;20051;-71
2022/05/25 03:21:25;;;;;;;6.32;5.65;;;8.20;99.90;;;;;;5013770;28;20120;-60
2022/05/25 03:23:51;;;;;;;7.57;5.75;;;8.30;99.90;;;;;;5029894;28;20044;-70
2022/05/25 03:26:17;;;;;;;6.97;6.00;;;8.40;99.90;;;;;;5030100;28;20075;-65
2022/05/25 03:28:44;;;;;;;7.32;6.07;;;8.40;99.90;;;;;;5029667;28;20045;-71
2022/05/25 03:31:10;;;;;;;9.18;6.28;;;8.40;99.90;;;;;;5030315;28;20080;-67
2022/05/25 03:33:36;;;;;;;9.73;6.00;;;8.40;99.90;;;;;;5012598;28;20136;-65
2022/05/25 03:36:02;;;;;;;7.90;5.60;;;8.50;99.90;;;;;;5029997;28;20497;-67
2022/05/25 03:38:28;;;;;;;6.28;5.78;;;8.50;99.90;;;;;;5013236;28;20053;-62
2022/05/25 03:40:55;;;;;;;7.50;6.05;;;8.50;99.90;;;;;;5029799;28;20098;-63
2022/05/25 03:43:21;;;;;;;10.02;6.60;;;8.50;99.90;;;;;;5029937;28;20990;-64
2022/05/25 03:45:47;;;;;;;7.68;6.45;;;8.50;99.90;;;;;;5047631;28;20041;-64
2022/05/25 03:48:14;;;;;;;8.38;6.10;;;8.40;99.90;;;;;;5029608;28;20483;-62
2022/05/25 03:50:41;;;;;;;11.35;6.22;;;8.50;99.90;;;;;;5046367;28;20490;-65
2022/05/25 03:53:12;;;;;;;6.20;5.25;;;8.40;99.90;;;;;;5012881;28;20084;-68
2022/05/25 03:55:38;;;;;;;6.32;5.60;;;8.50;99.90;;;;;;5029937;28;20482;-66
2022/05/25 03:58:04;;;;;;;7.10;6.30;;;8.40;99.90;;;;;;5028998;28;20045;-64
2022/05/25 04:00:31;;;;;;;9.88;6.20;;;8.50;99.90;;;;;;5029006;28;20116;-62
2022/05/25 04:02:59;;;;;;;9.45;6.45;;;8.50;99.90;;;;;;5028715;28;20048;-63
2022/05/25 04:05:26;;;;;;;9.85;6.70;;;8.50;99.90;;;;;;5013242;28;20124;-60
2022/05/25 04:07:55;;;;;;;10.18;6.45;;;8.50;99.90;;;;;;5029114;28;20048;-62
2022/05/25 04:10:21;;;;;;;11.93;7.28;;;8.60;99.90;;;;;;5028928;28;20041;-67
2022/05/25 04:12:47;;;;;;;9.73;6.35;;;8.60;99.90;;;;;;5029006;28;20045;-66
2022/05/25 04:15:19;;;;;;;8.45;6.90;;;8.70;99.90;;;;;;5028802;28;20064;-66
2022/05/25 04:17:45;;;;;;;8.20;6.75;;;8.70;99.90;;;;;;5029191;28;20056;-67
2022/05/25 04:20:12;;;;;;;8.48;7.00;;;8.80;99.90;;;;;;5046057;28;20049;-61
2022/05/25 04:22:44;;;;;;;8.10;7.18;;;8.80;99.90;;;;;;5047410;28;20510;-63
2022/05/25 04:25:12;;;;;;;14.07;7.13;;;8.90;99.90;;;;;;5028774;28;20127;-61
2022/05/25 04:27:40;;;;;;;9.40;6.90;;;9.00;99.90;;;;;;5029327;28;20053;-67
2022/05/25 04:30:08;;;;;;;9.07;7.00;;;9.10;99.90;;;;;;5028220;28;20100;-62
2022/05/25 04:32:34;;;;;;;12.90;7.43;;;9.10;99.90;;;;;;5028379;28;20045;-67
2022/05/25 04:34:59;;;;;;;13.15;7.50;;;9.20;99.90;;;;;;5028860;28;20067;-64
2022/05/25 04:40:36;;;;;;;7.93;6.93;;;9.30;99.90;;;;;;4979630;28;20043;-67
2022/05/25 04:43:08;;;;;;;14.15;8.48;;;9.40;99.90;;;;;;4965350;28;20051;-67
2022/05/25 04:45:37;;;;;;;9.15;7.80;;;9.50;99.90;;;;;;5000647;28;20105;-65
2022/05/25 04:48:03;;;;;;;13.13;7.50;;;9.60;99.90;;;;;;5028601;28;20100;-65
2022/05/25 04:50:40;;;;;;;14.20;8.77;;;9.70;99.90;;;;;;5043684;28;20444;-64
2022/05/25 04:53:11;;;;;;;10.75;8.02;;;9.80;99.90;;;;;;5028991;28;20537;-62
2022/05/25 04:58:44;;;;;;;12.82;7.50;;;10.00;99.90;;;;;;5046389;28;20447;-64
2022/05/25 05:01:13;;;;;;;17.73;7.60;;;10.10;99.90;;;;;;5027937;28;20118;-65
2022/05/25 05:03:39;;;;;;;12.23;8.07;;;10.30;99.90;;;;;;5027855;28;20049;-70
2022/05/25 05:06:07;;;;;;;14.25;9.05;;;10.40;99.90;;;;;;5046313;28;20047;-61
2022/05/25 05:08:34;;;;;;;10.27;7.63;;;10.50;99.90;;;;;;5027885;28;20066;-67
2022/05/25 05:11:09;;;;;;;13.05;8.25;;;10.60;99.90;;;;;;5012429;28;21021;-71
2022/05/25 05:13:37;;;;;;;14.32;8.63;;;10.60;99.90;;;;;;5010648;28;20502;-61
2022/05/25 05:16:06;;;;;;;14.15;8.70;;;10.70;99.90;;;;;;5044355;28;20443;-67
2022/05/25 05:18:32;;;;;;;10.43;7.60;;;10.80;99.90;;;;;;5045246;28;20083;-66
2022/05/25 05:20:58;;;;;;;9.07;7.57;;;10.90;99.90;;;;;;5010757;28;20059;-63
2022/05/25 05:23:23;;;;;;;9.02;7.55;;;11.00;99.90;;;;;;5045468;28;20123;-66
2022/05/25 05:25:49;;;;;;;12.93;8.20;;;11.10;99.90;;;;;;5027770;28;20566;-62
2022/05/25 05:28:18;;;;;;;14.13;7.70;;;11.20;99.90;;;;;;5046147;28;20075;-61
2022/05/25 05:30:54;;;;;;;14.48;7.95;;;11.20;99.90;;;;;;5045947;28;20048;-62
2022/05/25 05:33:25;;;;;;;13.13;8.05;;;11.30;99.90;;;;;;5019332;28;20055;-71
2022/05/25 05:36:03;;;;;;;8.38;7.57;;;11.40;99.90;;;;;;5046287;28;20081;-60
2022/05/25 05:38:30;;;;;;;10.65;7.30;;;11.50;99.90;;;;;;5011154;28;20037;-62
2022/05/25 05:40:56;;;;;;;8.80;6.90;;;11.70;99.90;;;;;;5028714;28;20053;-60
2022/05/25 05:43:22;;;;;;;11.38;7.93;;;11.80;99.90;;;;;;5027280;28;20041;-61
2022/05/25 05:45:49;;;;;;;11.68;7.25;;;11.90;99.90;;;;;;5027937;28;20446;-64
2022/05/25 05:48:23;;;;;;;9.60;8.02;;;11.90;99.90;;;;;;5027892;28;20045;-61
2022/05/25 05:50:54;;;;;;;10.52;8.63;;;12.00;99.90;;;;;;5027452;28;20069;-71
2022/05/25 05:53:21;;;;;;;10.82;8.07;;;12.00;99.90;;;;;;5027546;28;20839;-69
2022/05/25 05:55:47;;;;;;;8.75;6.85;;;12.10;99.90;;;;;;5027679;28;20037;-61
2022/05/25 05:58:14;;;;;;;8.52;7.63;;;12.20;99.90;;;;;;5030840;28;20045;-72
2022/05/25 06:00:40;;;;;;;10.23;7.95;;;12.20;99.90;;;;;;5031020;28;20060;-62
2022/05/25 06:03:06;;;;;;;12.65;8.07;;;12.20;99.90;;;;;;5010949;28;20132;-61
2022/05/25 06:05:32;;;;;;;8.50;7.28;;;12.30;99.90;;;;;;5021798;28;20049;-68
2022/05/25 06:08:07;;;;;;;15.15;6.40;;;12.30;99.90;;;;;;5031433;28;20492;-67
2022/05/25 06:10:34;;;;;;;10.32;8.10;;;12.40;99.90;;;;;;5048570;28;20495;-63
2022/05/25 06:12:59;;;;;;;11.15;7.55;;;12.50;99.90;;;;;;5014446;28;20076;-68
2022/05/25 06:20:54;;;;;;;10.85;8.13;;;12.70;99.90;;;;;;5049160;28;20079;-71
2022/05/25 06:23:19;;;;;;;11.45;7.63;;;12.80;99.90;;;;;;5028884;28;20069;-63
2022/05/25 06:25:45;;;;;;;12.40;7.90;;;13.00;99.90;;;;;;5011221;28;20053;-61
2022/05/25 06:28:11;;;;;;;9.68;7.68;;;13.30;99.90;;;;;;5011738;28;20211;-63
2022/05/25 06:30:36;;;;;;;12.93;6.50;;;13.50;99.90;;;;;;5010898;28;20053;-70
2022/05/25 06:33:05;;;;;;;10.50;7.70;;;13.70;99.90;;;;;;5039103;28;20579;-61
2022/05/25 06:35:30;;;;;;;9.38;7.78;;;13.70;99.90;;;;;;5030197;28;20056;-64
2022/05/25 06:37:56;;;;;;;13.80;8.68;;;13.90;99.90;;;;;;5030321;28;20471;-62
2022/05/25 06:40:22;;;;;;;11.18;8.60;;;14.00;99.90;;;;;;5030403;28;20148;-66
2022/05/25 06:42:48;;;;;;;7.63;5.95;;;14.30;99.90;;;;;;5030513;28;20045;-68
2022/05/25 06:45:14;;;;;;;11.98;7.82;;;14.60;99.90;;;;;;5030814;28;20049;-66
2022/05/25 06:47:40;;;;;;;11.82;7.07;;;14.90;99.90;;;;;;5047924;28;20063;-66
2022/05/25 06:50:06;;;;;;;8.60;6.85;;;15.30;99.90;;;;;;5030726;28;20499;-68
2022/05/25 06:52:32;;;;;;;8.38;6.43;;;15.50;99.90;;;;;;5047826;28;20049;-68
2022/05/25 06:54:58;;;;;;;8.70;6.95;;;15.70;99.90;;;;;;5048349;28;20060;-60
2022/05/25 06:57:25;;;;;;;8.80;6.88;;;15.90;99.90;;;;;;5048121;28;20041;-71
2022/05/25 06:59:51;;;;;;;9.27;6.28;;;15.90;99.90;;;;;;5048565;28;20403;-64
2022/05/25 07:02:17;;;;;;;7.82;5.93;;;16.10;99.90;;;;;;5030442;28;20053;-60
2022/05/25 07:04:42;;;;;;;9.15;6.00;;;16.20;99.90;;;;;;5025501;28;20487;-64
2022/05/25 07:07:08;;;;;;;8.80;6.22;;;16.30;99.90;;;;;;5013933;28;20064;-66
2022/05/25 07:09:38;;;;;;;10.38;6.32;;;16.50;99.90;;;;;;5045776;28;20122;-69
2022/05/25 07:12:04;;;;;;;;;;;16.80;99.90;;;;;;5030080;28;20067;-70
2022/05/25 07:14:29;;;;;;;6.90;5.60;;;17.00;99.90;;;;;;5028748;28;20294;-60
2022/05/25 07:16:55;;;;;;;5.50;5.00;;;17.30;99.90;;;;;;5047135;28;20578;-62
2022/05/25 07:19:22;;;;;;;13.18;5.95;;;17.40;97.10;;;;;;5029216;28;20049;-72
2022/05/25 07:21:49;;;;;;;8.45;5.18;;;17.60;97.10;;;;;;5030394;28;20061;-62
2022/05/25 07:24:15;;;;;;;8.05;5.07;;;17.70;94.10;;;;;;5048425;28;20106;-64
2022/05/25 07:26:40;;;;;;;8.85;4.28;;;18.00;95.40;;;;;;5029228;28;20045;-64
2022/05/25 07:29:06;;;;;;;8.27;4.78;;;18.10;92.00;;;;;;5030861;28;20045;-61
2022/05/25 07:31:51;;;;;;;9.23;4.57;;;18.30;92.40;;;;;;5028990;28;20056;-69
2022/05/25 07:34:18;;;;;;;9.45;4.85;;;18.40;88.30;;;;;;5029808;28;20048;-66
2022/05/25 07:37:10;;;;;;;9.30;4.53;;;18.60;89.50;;;;;;5029074;28;20044;-63
2022/05/25 07:39:53;;;;;;;8.13;4.53;;;18.70;84.60;;;;;;5027520;28;20049;-71
2022/05/25 07:42:21;;;;;;;6.35;4.20;;;18.70;83.80;;;;;;5027561;28;20040;-62
2022/05/25 07:44:58;;;;;;;11.38;3.95;;;18.70;82.20;;;;;;5009926;28;20518;-69
2022/05/25 07:47:27;;;;;;;6.28;3.97;;;18.70;84.60;;;;;;5025286;28;20128;-72
2022/05/25 07:49:53;;;;;;;6.13;4.20;;;18.80;80.00;;;;;;5013170;28;20080;-61
2022/05/25 07:52:22;;;;;;;9.02;3.97;;;18.90;84.80;;;;;;5029172;28;20092;-65
2022/05/25 07:54:48;;;;;;;6.65;3.78;;;18.90;73.30;;;;;;5029877;28;20403;-72
2022/05/25 07:57:14;;;;;;;8.93;3.95;;;18.90;69.10;;;;;;5047406;28;20048;-62
2022/05/25 07:59:40;;;;;;;7.65;3.90;;;19.00;69.40;;;;;;5046816;28;20537;-68
2022/05/25 08:07:54;;;;;;;6.03;3.30;;;19.50;66.10;;;;;;5047174;28;20567;-64
2022/05/25 08:10:23;;;;;;;3.58;2.88;;;19.20;67.70;;;;;;5045496;28;20132;-72
2022/05/25 08:12:57;;;;;;;4.30;2.70;;;19.20;69.30;;;;;;5028522;28;20099;-67
2022/05/25 08:15:24;;;;;;;5.68;2.50;;;19.20;69.80;;;;;;5008563;28;20041;-65
2022/05/25 08:17:49;;;;;;;2.30;1.85;;;19.20;63.80;;;;;;5009012;28;20041;-64
2022/05/25 08:20:16;;;;;;;4.88;2.63;;;19.00;58.80;;;;;;5038363;28;20889;-68
2022/05/25 08:22:42;;;;;;;2.97;2.20;;;19.00;65.60;;;;;;5028161;28;20098;-65
2022/05/25 08:25:10;;;;;;;7.05;3.45;;;19.00;56.40;;;;;;5013010;28;20092;-72
2022/05/25 08:27:39;;;;;;;3.17;2.42;;;18.80;53.40;;;;;;5028451;28;20053;-67
2022/05/25 08:30:15;;;;;;;2.30;2.10;;;18.60;68.20;;;;;;5029354;28;20084;-69
2022/05/25 08:32:41;;;;;;;5.40;1.90;;;18.80;63.40;;;;;;5027671;28;20147;-67
2022/05/25 08:35:08;;;;;;;3.00;1.83;;;19.00;62.90;;;;;;5012032;28;20116;-70
2022/05/25 08:37:34;;;;;;;4.30;2.30;;;19.20;57.20;;;;;;5027123;28;20118;-63
2022/05/25 08:40:00;;;;;;;9.30;2.40;;;19.20;57.50;;;;;;5026589;28;20479;-69
2022/05/25 08:42:30;;;;;;;4.85;2.13;;;19.20;60.00;;;;;;5026731;28;20114;-63
2022/05/25 08:44:58;;;;;;;3.22;1.83;;;19.20;58.70;;;;;;5026010;28;20044;-71
2022/05/25 08:47:24;;;;;;;3.47;1.77;;;19.10;55.00;;;;;;5010379;28;20084;-68
2022/05/25 08:49:51;;;;;;;5.55;1.67;;;18.90;52.70;;;;;;5044619;28;20070;-68
2022/05/25 08:52:36;;;;;;;3.25;1.48;;;18.90;49.90;;;;;;5026939;28;20063;-65
2022/05/25 08:55:06;;;;;;;2.92;1.55;;;18.90;48.50;;;;;;5028255;28;20053;-66
2022/05/25 08:57:48;;;;;;;6.90;1.70;;;18.90;49.30;;;;;;5026670;28;20511;-68
2022/05/25 09:00:17;;;;;;;3.42;1.60;;;18.80;53.60;;;;;;5024269;28;20064;-66
2022/05/25 09:02:58;;;;;;;1.98;1.40;;;18.80;49.30;;;;;;5042682;28;20973;-68
2022/05/25 09:05:34;;;;;;;2.83;1.65;;;18.90;44.90;;;;;;5028130;28;20091;-68
2022/05/25 09:08:37;;;;;;;3.75;1.20;;;19.00;46.50;;;;;;5027422;28;20059;-71
2022/05/25 09:11:07;;;;;;;3.22;1.33;;;19.10;39.40;;;;;;5026574;28;20126;-62
2022/05/25 09:13:40;;;;;;;4.78;1.40;;;19.10;48.60;;;;;;5022793;28;20055;-65
2022/05/25 09:16:15;;;;;;;1.30;1.20;;;19.10;43.30;;;;;;5026723;28;20048;-67
2022/05/25 09:18:51;;;;;;;3.33;1.48;;;19.20;45.20;;;;;;5025953;28;20483;-70
2022/05/25 09:21:20;;;;;;;2.42;1.17;;;19.10;40.10;;;;;;5024586;28;20044;-64
2022/05/25 09:23:47;;;;;;;4.45;1.65;;;19.20;46.40;;;;;;5004595;28;20053;-64
2022/05/25 09:26:13;;;;;;;7.72;1.50;;;19.20;37.80;;;;;;5027615;28;20045;-67
2022/05/25 09:28:42;;;;;;;4.18;1.30;;;19.30;37.80;;;;;;5027055;28;20045;-65
2022/05/25 09:31:11;;;;;;;1.95;1.40;;;19.40;38.70;;;;;;5011487;28;20522;-62
2022/05/25 09:33:46;;;;;;;2.47;1.25;;;19.40;40.90;;;;;;5030223;28;20482;-67
2022/05/25 09:36:21;;;;;;;2.22;1.02;;;19.50;44.50;;;;;;5031674;28;20057;-63
2022/05/25 09:39:12;;;;;;;2.97;1.35;;;19.50;37.40;;;;;;5030754;28;20049;-66
2022/05/25 09:41:42;;;;;;;2.00;1.35;;;19.10;33.80;;;;;;5047331;28;20541;-65
2022/05/25 09:44:10;;;;;;;2.85;1.58;;;18.70;39.80;;;;;;5030190;28;20071;-69
2022/05/25 09:46:41;;;;;;;3.92;1.55;;;18.60;37.90;;;;;;5029871;28;20119;-69
2022/05/25 09:49:14;;;;;;;2.13;1.27;;;18.80;44.10;;;;;;5030711;28;20048;-69
2022/05/25 09:51:49;;;;;;;2.75;1.38;;;18.90;40.60;;;;;;5021673;28;20144;-72
2022/05/25 09:54:17;;;;;;;1.80;1.30;;;18.70;39.40;;;;;;5010864;28;20500;-67
2022/05/25 09:56:50;;;;;;;1.77;1.10;;;18.60;36.50;;;;;;4995212;28;20089;-72
2022/05/25 09:59:42;;;;;;;9.27;2.15;;;18.50;41.40;;;;;;4995686;28;20053;-66
2022/05/25 10:02:36;;;;;;;7.28;1.00;;;18.40;37.40;;;;;;5011235;28;20142;-64
2022/05/25 10:05:11;;;;;;;3.38;1.40;;;18.40;40.30;;;;;;4995274;28;20184;-63
2022/05/25 10:07:51;;;;;;;4.63;1.13;;;18.50;39.50;;;;;;5010847;28;20511;-63
2022/05/25 10:10:23;;;;;;;;;;;18.60;51.70;;;;;;5029711;28;20455;-64
2022/05/25 10:13:18;;;;;;;3.75;1.55;;;18.60;46.60;;;;;;5011139;28;19921;-65
2022/05/25 10:15:51;;;;;;;3.60;1.60;;;18.40;45.40;;;;;;5009666;28;20053;-66
2022/05/25 10:18:31;;;;;;;3.80;1.92;;;18.30;43.40;;;;;;5010938;28;20057;-71
2022/05/25 10:20:57;;;;;;;5.03;1.23;;;18.30;40.90;;;;;;5010415;28;20128;-70
2022/05/25 10:23:24;;;;;;;1.83;1.42;;;18.10;43.90;;;;;;5010315;28;20465;-69
2022/05/25 10:25:52;;;;;;;4.82;1.40;;;18.10;46.10;;;;;;5009616;28;20051;-68
2022/05/25 10:28:39;;;;;;;2.10;1.20;;;18.10;45.60;;;;;;5010554;28;20385;-62
2022/05/25 10:37:11;;;;;;;4.88;1.40;;;18.40;48.40;;;;;;5007432;28;20132;-67
2022/05/25 10:40:03;;;;;;;4.18;1.58;;;18.40;37.30;;;;;;5009504;28;20400;-70
2022/05/25 10:42:45;;;;;;;1.20;1.10;;;18.40;45.20;;;;;;4993102;28;20049;-75
2022/05/25 10:45:20;;;;;;;7.60;1.27;;;18.20;42.10;;;;;;4993774;28;20156;-72
2022/05/25 10:48:28;;;;;;;3.25;1.33;;;18.10;44.60;;;;;;4992884;28;20045;-70
2022/05/25 10:51:02;;;;;;;8.65;1.63;;;18.00;42.10;;;;;;4969348;28;20056;-66
2022/05/25 10:53:37;;;;;;;2.25;1.30;;;17.80;43.20;;;;;;5029385;28;20491;-64
2022/05/25 10:56:31;;;;;;;12.75;1.40;;;17.60;50.00;;;;;;5029338;28;20083;-63
2022/05/25 10:59:14;;;;;;;1.98;1.05;;;17.60;59.20;;;;;;5028685;28;20526;-67
2022/05/25 11:01:59;;;;;;;2.30;1.08;;;17.70;59.10;;;;;;5046808;28;20409;-69
2022/05/25 11:04:49;;;;;;;2.92;1.17;;;17.90;57.90;;;;;;5029412;28;20458;-73
2022/05/25 11:07:38;;;;;;;2.08;1.25;;;17.90;51.70;;;;;;5028775;28;20063;-70
2022/05/25 11:10:31;;;;;;;7.00;1.05;;;17.90;47.40;;;;;;5009044;28;20431;-70
2022/05/25 11:13:22;;;;;;;1.75;1.02;;;17.90;54.70;;;;;;5022816;28;20088;-68
2022/05/25 11:15:48;;;;;;;4.55;1.40;;;17.90;58.90;;;;;;5025522;28;20048;-64
2022/05/25 11:18:35;;;;;;;0.90;0.90;;;17.80;56.50;;;;;;5030448;28;20052;-66
2022/05/25 11:21:16;;;;;;;4.93;1.20;;;17.70;54.10;;;;;;5029830;28;20045;-67
2022/05/25 11:23:54;;;;;;;4.32;1.13;;;17.70;61.20;;;;;;5029695;28;20076;-66
2022/05/25 11:27:04;;;;;;;2.30;0.95;;;17.70;55.50;;;;;;5030010;28;20068;-73
2022/05/25 11:30:00;;;;;;;1.83;0.90;;;17.60;51.50;;;;;;5023001;28;20076;-67
2022/05/25 11:32:40;;;;;;;2.80;1.15;;;17.60;49.10;;;;;;5012324;28;20049;-66
2022/05/25 11:35:27;;;;;;;2.15;0.90;;;17.50;48.30;;;;;;5028978;28;20049;-65
2022/05/25 11:37:59;;;;;;;1.77;1.00;;;17.40;53.10;;;;;;5028728;28;20132;-68
2022/05/25 11:41:10;;;;;;;6.72;1.73;;;17.30;53.20;;;;;;5047131;28;20052;-70
2022/05/25 11:43:45;;;;;;;3.03;1.10;;;17.10;50.50;;;;;;5038278;28;20504;-64
2022/05/25 11:46:36;;;;;;;2.10;1.20;;;16.90;56.60;;;;;;5007754;28;20052;-64
2022/05/25 11:49:28;;;;;;;3.28;1.52;;;16.80;65.70;;;;;;5010346;28;20045;-67
2022/05/25 11:52:22;;;;;;;2.35;1.40;;;16.50;66.70;;;;;;5027946;28;20438;-64
2022/05/25 11:55:10;;;;;;;8.63;1.98;;;16.30;79.20;;;;;;5026313;28;20092;-73
2022/05/25 11:57:44;;;;;;;5.20;2.20;;;15.80;92.10;;;;;;5028211;28;20068;-71
2022/05/25 12:00:29;;;;;;;5.57;3.95;;;15.00;99.90;;;;;;5045794;28;20057;-67
2022/05/25 12:03:10;;;;;;;8.90;4.70;;;14.60;99.90;;;;;;5026584;28;20075;-74
2022/05/25 12:05:55;;;;;;;8.15;4.68;;;14.50;99.90;;;;;;5028274;28;20057;-72
2022/05/25 12:08:36;;;;;;;5.22;2.17;;;14.60;99.90;;;;;;5028483;28;20487;-72
2022/05/25 12:11:10;;;;;;;2.53;1.80;;;14.70;99.90;;;;;;5029038;28;20049;-63
2022/05/25 12:13:48;;;;;;;8.60;1.80;;;15.00;99.90;;;;;;5028938;28;20059;-70
2022/05/25 12:16:51;;;;;;;2.88;1.80;;;15.30;99.90;;;;;;5029134;28;20057;-67
2022/05/25 12:19:23;;;;;;;7.50;2.05;;;15.80;99.90;;;;;;4964835;28;20054;-66
2022/05/25 12:22:02;;;;;;;4.15;2.53;;;15.90;99.30;;;;;;4983962;28;20061;-67
2022/05/25 12:24:43;;;;;;;2.85;1.95;;;16.00;99.90;;;;;;5008992;28;20118;-63
2022/05/25 12:27:15;;;;;;;5.03;2.22;;;16.10;98.50;;;;;;5009340;28;20609;-73
2022/05/25 12:29:54;;;;;;;7.22;2.30;;;16.20;99.90;;;;;;5012094;28;20055;-63
2022/05/25 12:32:20;;;;;;;4.40;2.30;;;16.30;97.40;;;;;;5027671;28;20041;-63
2022/05/25 12:34:50;;;;;;;4.65;2.00;;;16.40;97.20;;;;;;5007195;28;20557;-64
2022/05/25 12:37:30;;;;;;;4.63;2.67;;;16.50;92.30;;;;;;5008913;28;20041;-73
2022/05/25 12:39:59;;;;;;;3.15;2.40;;;16.70;96.60;;;;;;5025746;28;20052;-72
2022/05/25 12:42:25;;;;;;;3.00;2.05;;;16.90;94.40;;;;;;5026666;28;20076;-71
2022/05/25 12:51:04;;;;;;;2.25;0.70;;;17.10;70.60;;;;;;5018326;28;20053;-74
2022/05/25 12:53:32;;;;;;;2.13;0.82;;;17.20;69.30;;;;;;5013655;28;20509;-64
2022/05/25 12:56:24;;;;;;;1.33;1.10;;;17.30;63.20;;;;;;5014030;28;20068;-67
2022/05/25 12:58:53;;;;;;;3.10;0.98;;;17.40;70.70;;;;;;4995911;28;20067;-63
2022/05/25 13:01:28;;;;;;;4.43;1.60;;;17.60;65.30;;;;;;5015097;28;20120;-65
2022/05/25 13:03:57;;;;;;;1.83;1.10;;;17.70;68.00;;;;;;5022196;28;20077;-71
2022/05/25 13:06:29;;;;;;;5.45;1.38;;;17.70;55.50;;;;;;5027348;28;20040;-65
2022/05/25 13:08:55;;;;;;;4.97;1.40;;;17.60;57.70;;;;;;5027243;28;20060;-73
2022/05/25 13:11:44;;;;;;;2.05;0.68;;;17.60;55.60;;;;;;5011190;28;20048;-68
2022/05/25 13:14:16;;;;;;;8.82;1.58;;;17.60;61.30;;;;;;5026839;28;20356;-69
2022/05/25 13:16:42;;;;;;;5.28;1.20;;;17.70;57.00;;;;;;5027890;28;20127;-63
2022/05/25 13:19:29;;;;;;;5.82;1.42;;;17.80;58.20;;;;;;5028003;28;20163;-63
2022/05/25 13:22:05;;;;;;;3.47;1.35;;;18.00;63.60;;;;;;5010665;28;20123;-71
2022/05/25 13:25:01;;;;;;;4.10;1.70;;;18.10;52.60;;;;;;5027858;28;20111;-66
2022/05/25 13:27:58;;;;;;;1.60;1.13;;;18.10;56.70;;;;;;5028397;28;20045;-66
2022/05/25 13:30:39;;;;;;;4.10;1.23;;;18.10;50.60;;;;;;5027666;28;20049;-67
2022/05/25 13:33:21;;;;;;;2.90;1.52;;;17.80;53.70;;;;;;5026852;28;20052;-63
2022/05/25 13:36:05;;;;;;;5.68;2.10;;;17.70;56.50;;;;;;5027724;28;20095;-62
2022/05/25 13:38:58;;;;;;;12.43;1.77;;;17.50;61.10;;;;;;5027913;28;20048;-64
2022/05/25 13:41:39;;;;;;;4.75;0.90;;;17.60;65.80;;;;;;5023994;28;20057;-64
2022/05/25 13:44:13;;;;;;;13.35;1.20;;;17.50;55.80;;;;;;5026402;28;20045;-62
2022/05/25 13:46:45;;;;;;;3.05;0.75;;;17.40;49.60;;;;;;5027036;28;20052;-71
2022/05/25 13:49:21;;;;;;;2.47;0.60;;;17.30;52.30;;;;;;5026407;28;20041;-62
2022/05/25 13:51:48;;;;;;;2.42;0.82;;;17.30;52.60;;;;;;5022516;28;20070;-68
2022/05/25 13:54:31;;;;;;;4.15;0.73;;;17.40;49.80;;;;;;5006806;28;20049;-68